createdAt,value
2023-04-30T00:00:04.981Z,0.00
2023-04-30T00:01:04.984Z,0.00
2023-04-30T00:02:05.050Z,0.00
2023-04-30T00:03:05.076Z,0.00
2023-04-30T00:04:04.999Z,0.00
2023-04-30T00:05:04.929Z,0.00
2023-04-30T00:06:04.935Z,0.00
2023-04-30T00:07:07.872Z,0.00
2023-04-30T00:08:07.921Z,0.00
2023-04-30T00:09:04.870Z,0.00
2023-04-30T00:10:04.852Z,0.00
2023-04-30T00:11:04.828Z,0.00
2023-04-30T00:12:04.859Z,0.00
2023-04-30T00:13:04.800Z,0.00
2023-04-30T00:14:04.823Z,0.00
2023-04-30T00:15:04.893Z,0.00
2023-04-30T00:16:04.791Z,0.00
2023-04-30T00:17:04.754Z,0.00
2023-04-30T00:18:04.834Z,0.00
2023-04-30T00:19:04.765Z,0.00
2023-04-30T00:20:04.738Z,0.00
2023-04-30T00:21:04.684Z,0.00
2023-04-30T00:22:04.693Z,0.00
2023-04-30T00:23:04.703Z,0.00
2023-04-30T00:24:04.667Z,0.00
2023-04-30T00:25:04.671Z,0.00
2023-04-30T00:26:04.638Z,0.00
2023-04-30T00:27:07.613Z,0.00
2023-04-30T00:28:07.605Z,0.00
2023-04-30T00:29:04.585Z,0.00
2023-04-30T00:30:04.637Z,0.00
2023-04-30T00:31:04.559Z,0.00
2023-04-30T00:32:04.567Z,0.00
2023-04-30T00:33:04.630Z,0.00
2023-04-30T00:34:04.515Z,0.00
2023-04-30T00:35:04.561Z,0.00
2023-04-30T00:36:04.543Z,0.00
2023-04-30T00:37:04.515Z,0.00
2023-04-30T00:38:04.482Z,0.00
2023-04-30T00:39:04.469Z,0.00
2023-04-30T00:40:04.452Z,0.00
2023-04-30T00:41:04.520Z,0.00
2023-04-30T00:42:04.416Z,0.00
2023-04-30T00:43:04.432Z,0.00
2023-04-30T00:44:04.381Z,0.00
2023-04-30T00:45:04.369Z,0.00
2023-04-30T00:46:04.364Z,0.00
2023-04-30T00:47:07.430Z,0.00
2023-04-30T00:48:07.383Z,0.00
2023-04-30T00:49:04.314Z,0.00
2023-04-30T00:50:04.367Z,0.00
2023-04-30T00:51:04.294Z,0.00
2023-04-30T00:52:04.280Z,0.00
2023-04-30T00:53:04.305Z,0.00
2023-04-30T00:54:04.280Z,0.00
2023-04-30T00:55:04.293Z,0.00
2023-04-30T00:56:04.229Z,0.00
2023-04-30T00:57:04.223Z,0.00
2023-04-30T00:58:04.255Z,0.00
2023-04-30T00:59:04.199Z,0.00
2023-04-30T01:00:04.180Z,0.00
2023-04-30T01:01:04.255Z,0.00
2023-04-30T01:02:04.206Z,0.00
2023-04-30T01:03:04.310Z,0.00
2023-04-30T01:04:04.159Z,0.00
2023-04-30T01:05:04.095Z,0.00
2023-04-30T01:06:04.137Z,0.00
2023-04-30T01:07:07.097Z,0.00
2023-04-30T01:08:07.129Z,0.00
2023-04-30T01:09:04.052Z,0.00
2023-04-30T01:10:04.130Z,0.00
2023-04-30T01:11:04.017Z,0.00
2023-04-30T01:12:04.013Z,0.00
2023-04-30T01:13:04.003Z,0.00
2023-04-30T01:14:04.017Z,0.00
2023-04-30T01:15:03.968Z,0.00
2023-04-30T01:16:04.038Z,0.00
2023-04-30T01:17:03.951Z,0.00
2023-04-30T01:18:04.009Z,0.00
2023-04-30T01:19:03.995Z,0.00
2023-04-30T01:20:03.907Z,0.00
2023-04-30T01:21:03.912Z,0.00
2023-04-30T01:22:03.908Z,0.00
2023-04-30T01:23:03.858Z,0.00
2023-04-30T01:24:03.850Z,0.00
2023-04-30T01:25:03.834Z,0.00
2023-04-30T01:26:03.885Z,0.00
2023-04-30T01:27:06.805Z,0.00
2023-04-30T01:28:06.885Z,0.00
2023-04-30T01:29:03.786Z,0.00
2023-04-30T01:30:03.785Z,0.00
2023-04-30T01:31:03.815Z,0.00
2023-04-30T01:32:03.788Z,0.00
2023-04-30T01:33:03.801Z,0.00
2023-04-30T01:34:03.721Z,0.00
2023-04-30T01:35:03.722Z,0.00
2023-04-30T01:36:03.692Z,0.00
2023-04-30T01:37:03.736Z,0.00
2023-04-30T01:38:03.666Z,0.00
2023-04-30T01:39:03.692Z,0.00
2023-04-30T01:40:03.647Z,0.00
2023-04-30T01:41:03.621Z,0.00
2023-04-30T01:42:03.630Z,0.00
2023-04-30T01:43:03.625Z,0.00
2023-04-30T01:44:03.592Z,0.00
2023-04-30T01:45:03.569Z,0.00
2023-04-30T01:46:03.626Z,0.00
2023-04-30T01:47:06.546Z,0.00
2023-04-30T01:48:06.699Z,0.00
2023-04-30T01:49:03.520Z,0.00
2023-04-30T01:50:03.510Z,0.00
2023-04-30T01:51:03.494Z,0.00
2023-04-30T01:52:03.472Z,0.00
2023-04-30T01:53:03.496Z,0.00
2023-04-30T01:54:03.503Z,0.00
2023-04-30T01:55:03.468Z,0.00
2023-04-30T01:56:03.431Z,0.00
2023-04-30T01:57:03.409Z,0.00
2023-04-30T01:58:03.417Z,0.00
2023-04-30T01:59:03.422Z,0.00
2023-04-30T02:00:03.425Z,0.00
2023-04-30T02:01:03.390Z,0.00
2023-04-30T02:02:03.360Z,0.00
2023-04-30T02:03:03.415Z,0.00
2023-04-30T02:04:03.420Z,0.00
2023-04-30T02:05:03.301Z,0.00
2023-04-30T02:06:03.310Z,0.00
2023-04-30T02:07:06.271Z,0.00
2023-04-30T02:08:06.272Z,0.00
2023-04-30T02:09:03.608Z,0.00
2023-04-30T02:10:03.233Z,0.00
2023-04-30T02:11:03.241Z,0.00
2023-04-30T02:12:03.262Z,0.00
2023-04-30T02:13:03.208Z,0.00
2023-04-30T02:14:03.189Z,0.00
2023-04-30T02:15:03.212Z,0.00
2023-04-30T02:16:03.150Z,0.00
2023-04-30T02:17:03.156Z,0.00
2023-04-30T02:18:03.137Z,0.00
2023-04-30T02:19:03.101Z,0.00
2023-04-30T02:20:03.124Z,0.00
2023-04-30T02:21:03.109Z,0.00
2023-04-30T02:22:03.091Z,0.00
2023-04-30T02:23:03.051Z,0.00
2023-04-30T02:24:03.050Z,0.00
2023-04-30T02:25:03.071Z,0.00
2023-04-30T02:26:03.030Z,0.00
2023-04-30T02:27:05.992Z,0.00
2023-04-30T02:28:05.983Z,0.00
2023-04-30T02:29:02.961Z,0.00
2023-04-30T02:30:02.977Z,0.00
2023-04-30T02:31:02.985Z,0.00
2023-04-30T02:32:03.001Z,0.00
2023-04-30T02:33:02.979Z,0.00
2023-04-30T02:34:03.013Z,0.00
2023-04-30T02:35:02.905Z,0.00
2023-04-30T02:36:02.878Z,0.00
2023-04-30T02:37:02.873Z,0.00
2023-04-30T02:38:02.859Z,0.00
2023-04-30T02:39:02.825Z,0.00
2023-04-30T02:40:02.823Z,0.00
2023-04-30T02:41:02.831Z,0.00
2023-04-30T02:42:02.801Z,0.00
2023-04-30T02:43:02.777Z,0.00
2023-04-30T02:44:02.770Z,0.00
2023-04-30T02:45:02.779Z,0.00
2023-04-30T02:46:02.830Z,0.00
2023-04-30T02:47:05.728Z,0.00
2023-04-30T02:48:05.806Z,0.00
2023-04-30T02:49:02.706Z,0.00
2023-04-30T02:50:02.727Z,0.00
2023-04-30T02:51:02.688Z,0.00
2023-04-30T02:52:02.656Z,0.00
2023-04-30T02:53:02.641Z,0.00
2023-04-30T02:54:02.629Z,0.00
2023-04-30T02:55:02.635Z,0.00
2023-04-30T02:56:02.593Z,0.00
2023-04-30T02:57:02.598Z,0.00
2023-04-30T02:58:02.575Z,0.00
2023-04-30T02:59:02.547Z,0.00
2023-04-30T03:00:02.597Z,0.00
2023-04-30T03:01:02.624Z,0.00
2023-04-30T03:02:02.562Z,0.00
2023-04-30T03:03:02.581Z,0.00
2023-04-30T03:04:02.491Z,0.00
2023-04-30T03:05:02.488Z,0.00
2023-04-30T03:06:02.520Z,0.00
2023-04-30T03:07:05.441Z,0.00
2023-04-30T03:08:05.433Z,0.00
2023-04-30T03:09:02.423Z,4.00
2023-04-30T03:10:02.409Z,4.00
2023-04-30T03:11:02.432Z,0.00
2023-04-30T03:12:02.372Z,0.00
2023-04-30T03:13:02.373Z,4.00
2023-04-30T03:14:02.346Z,4.00
2023-04-30T03:15:02.385Z,0.00
2023-04-30T03:16:02.400Z,4.00
2023-04-30T03:17:02.310Z,4.00
2023-04-30T03:18:02.324Z,4.00
2023-04-30T03:19:02.290Z,4.00
2023-04-30T03:20:02.276Z,4.00
2023-04-30T03:21:02.358Z,4.00
2023-04-30T03:22:02.259Z,8.00
2023-04-30T03:23:02.233Z,8.00
2023-04-30T03:24:02.227Z,8.00
2023-04-30T03:25:02.243Z,12.00
2023-04-30T03:26:02.184Z,12.00
2023-04-30T03:27:05.199Z,12.00
2023-04-30T03:28:05.173Z,20.00
2023-04-30T03:29:02.193Z,20.00
2023-04-30T03:30:02.144Z,24.00
2023-04-30T03:31:02.205Z,32.00
2023-04-30T03:32:02.210Z,32.00
2023-04-30T03:33:02.200Z,36.00
2023-04-30T03:34:02.084Z,44.00
2023-04-30T03:35:02.082Z,48.00
2023-04-30T03:36:02.054Z,56.00
2023-04-30T03:37:02.156Z,64.00
2023-04-30T03:38:02.025Z,72.00
2023-04-30T03:39:02.022Z,80.00
2023-04-30T03:40:01.998Z,92.00
2023-04-30T03:41:02.038Z,100.00
2023-04-30T03:42:01.981Z,112.00
2023-04-30T03:43:01.986Z,124.00
2023-04-30T03:44:02.014Z,136.00
2023-04-30T03:45:01.992Z,152.00
2023-04-30T03:46:01.957Z,164.00
2023-04-30T03:47:04.916Z,176.00
2023-04-30T03:48:04.921Z,196.00
2023-04-30T03:49:01.896Z,212.00
2023-04-30T03:50:01.892Z,232.00
2023-04-30T03:51:01.857Z,252.00
2023-04-30T03:52:01.843Z,272.00
2023-04-30T03:53:01.827Z,292.00
2023-04-30T03:54:01.818Z,316.00
2023-04-30T03:55:01.878Z,340.00
2023-04-30T03:56:01.779Z,368.00
2023-04-30T03:57:01.777Z,396.00
2023-04-30T03:58:01.750Z,420.00
2023-04-30T03:59:01.756Z,448.00
2023-04-30T04:00:01.756Z,472.00
2023-04-30T04:01:01.764Z,504.00
2023-04-30T04:02:01.889Z,536.00
2023-04-30T04:03:01.751Z,564.00
2023-04-30T04:04:01.712Z,592.00
2023-04-30T04:05:01.699Z,624.00
2023-04-30T04:06:01.673Z,656.00
2023-04-30T04:07:04.707Z,688.00
2023-04-30T04:08:04.624Z,724.00
2023-04-30T04:09:01.609Z,756.00
2023-04-30T04:10:01.591Z,792.00
2023-04-30T04:11:01.635Z,828.00
2023-04-30T04:12:01.642Z,872.00
2023-04-30T04:13:01.555Z,908.00
2023-04-30T04:14:01.539Z,948.00
2023-04-30T04:15:01.530Z,988.00
2023-04-30T04:16:01.602Z,1028.00
2023-04-30T04:17:01.495Z,1072.00
2023-04-30T04:18:01.572Z,1112.00
2023-04-30T04:19:01.606Z,1148.00
2023-04-30T04:20:01.499Z,1196.00
2023-04-30T04:21:01.450Z,1240.00
2023-04-30T04:22:01.440Z,1288.00
2023-04-30T04:23:01.421Z,1348.00
2023-04-30T04:24:01.434Z,1412.00
2023-04-30T04:25:01.401Z,1484.00
2023-04-30T04:26:01.389Z,1560.00
2023-04-30T04:27:04.369Z,1656.00
2023-04-30T04:28:04.369Z,1768.00
2023-04-30T04:29:01.368Z,1880.00
2023-04-30T04:30:01.320Z,1972.00
2023-04-30T04:31:01.334Z,2072.00
2023-04-30T04:32:01.406Z,2204.00
2023-04-30T04:33:01.334Z,2308.00
2023-04-30T04:34:01.296Z,2400.00
2023-04-30T04:35:01.272Z,2764.00
2023-04-30T04:36:01.247Z,3624.00
2023-04-30T04:37:01.235Z,4464.00
2023-04-30T04:38:01.197Z,4924.00
2023-04-30T04:39:01.225Z,5404.00
2023-04-30T04:40:01.177Z,5672.00
2023-04-30T04:41:01.184Z,5856.00
2023-04-30T04:42:01.186Z,5964.00
2023-04-30T04:43:01.137Z,6188.00
2023-04-30T04:44:01.130Z,6312.00
2023-04-30T04:45:01.165Z,6600.00
2023-04-30T04:46:01.161Z,6676.00
2023-04-30T04:47:04.095Z,6788.00
2023-04-30T04:48:04.119Z,6996.00
2023-04-30T04:49:01.067Z,7188.00
2023-04-30T04:50:01.053Z,7208.00
2023-04-30T04:51:01.071Z,7376.00
2023-04-30T04:52:01.043Z,7368.00
2023-04-30T04:53:01.008Z,7460.00
2023-04-30T04:54:00.983Z,7512.00
2023-04-30T04:55:01.083Z,7624.00
2023-04-30T04:56:00.990Z,7536.00
2023-04-30T04:57:00.941Z,6428.00
2023-04-30T04:58:00.926Z,4648.00
2023-04-30T04:59:00.919Z,4084.00
2023-04-30T05:00:00.907Z,4348.00
2023-04-30T05:01:00.926Z,4432.00
2023-04-30T05:02:01.015Z,6644.00
2023-04-30T05:03:01.044Z,8212.00
2023-04-30T05:04:01.027Z,8836.00
2023-04-30T05:05:00.836Z,8324.00
2023-04-30T05:06:00.905Z,8872.00
2023-04-30T05:07:03.837Z,5244.00
2023-04-30T05:08:03.801Z,5052.00
2023-04-30T05:09:00.786Z,5180.00
2023-04-30T05:10:00.793Z,6408.00
2023-04-30T05:11:00.773Z,7488.00
2023-04-30T05:12:00.794Z,4688.00
2023-04-30T05:13:00.748Z,4636.00
2023-04-30T05:14:00.762Z,4628.00
2023-04-30T05:15:00.713Z,5204.00
2023-04-30T05:16:00.729Z,4532.00
2023-04-30T05:17:00.695Z,5028.00
2023-04-30T05:18:00.710Z,4888.00
2023-04-30T05:19:00.676Z,5036.00
2023-04-30T05:20:00.672Z,5140.00
2023-04-30T05:21:00.630Z,5476.00
2023-04-30T05:22:00.597Z,5844.00
2023-04-30T05:23:00.651Z,5748.00
2023-04-30T05:24:00.606Z,6028.00
2023-04-30T05:25:00.567Z,9520.00
2023-04-30T05:26:00.566Z,6996.00
2023-04-30T05:27:03.538Z,7360.00
2023-04-30T05:28:03.549Z,8544.00
2023-04-30T05:29:00.519Z,6404.00
2023-04-30T05:30:00.497Z,9980.00
2023-04-30T05:31:00.508Z,7536.00
2023-04-30T05:32:00.545Z,6024.00
2023-04-30T05:33:00.518Z,10916.00
2023-04-30T05:34:00.487Z,6268.00
2023-04-30T05:35:00.439Z,7712.00
2023-04-30T05:36:00.479Z,9948.00
2023-04-30T05:37:00.406Z,12304.00
2023-04-30T05:38:00.384Z,11456.00
2023-04-30T05:39:00.387Z,12312.00
2023-04-30T05:40:00.357Z,8432.00
2023-04-30T05:41:00.419Z,13048.00
2023-04-30T05:42:00.350Z,6872.00
2023-04-30T05:43:00.320Z,6612.00
2023-04-30T05:44:00.300Z,8204.00
2023-04-30T05:45:00.293Z,11484.00
2023-04-30T05:46:00.322Z,9052.00
2023-04-30T05:47:03.294Z,7668.00
2023-04-30T05:48:03.373Z,12028.00
2023-04-30T05:49:00.241Z,12412.00
2023-04-30T05:50:00.212Z,8572.00
2023-04-30T05:51:00.372Z,7196.00
2023-04-30T05:52:00.243Z,11232.00
2023-04-30T05:53:00.185Z,11536.00
2023-04-30T05:54:00.157Z,6932.00
2023-04-30T05:55:00.173Z,10852.00
2023-04-30T05:56:00.163Z,11184.00
2023-04-30T05:57:00.159Z,7016.00
2023-04-30T05:58:00.102Z,8868.00
2023-04-30T05:59:00.132Z,8416.00
2023-04-30T06:00:00.137Z,11164.00
2023-04-30T06:01:00.083Z,10160.00
2023-04-30T06:02:00.173Z,10844.00
2023-04-30T06:03:00.108Z,10864.00
2023-04-30T06:04:00.026Z,10884.00
2023-04-30T06:05:00.073Z,10928.00
2023-04-30T06:06:00.045Z,10768.00
2023-04-30T06:07:03.008Z,10712.00
2023-04-30T06:08:03.048Z,10724.00
2023-04-30T06:08:59.978Z,10880.00
2023-04-30T06:09:59.952Z,10908.00
2023-04-30T06:10:59.993Z,10880.00
2023-04-30T06:11:59.929Z,10840.00
2023-04-30T06:12:59.915Z,10780.00
2023-04-30T06:13:59.940Z,10660.00
2023-04-30T06:14:59.884Z,10448.00
2023-04-30T06:15:59.902Z,10224.00
2023-04-30T06:16:59.876Z,9940.00
2023-04-30T06:17:59.972Z,9588.00
2023-04-30T06:18:59.840Z,9188.00
2023-04-30T06:19:59.813Z,8792.00
2023-04-30T06:20:59.807Z,8404.00
2023-04-30T06:21:59.788Z,8048.00
2023-04-30T06:22:59.764Z,7744.00
2023-04-30T06:23:59.786Z,7440.00
2023-04-30T06:24:59.734Z,7124.00
2023-04-30T06:25:59.744Z,6840.00
2023-04-30T06:27:02.724Z,6564.00
2023-04-30T06:28:02.689Z,6260.00
2023-04-30T06:28:59.679Z,5964.00
2023-04-30T06:29:59.727Z,5664.00
2023-04-30T06:30:59.676Z,5372.00
2023-04-30T06:31:59.641Z,5084.00
2023-04-30T06:32:59.663Z,4784.00
2023-04-30T06:33:59.613Z,4504.00
2023-04-30T06:34:59.589Z,4296.00
2023-04-30T06:35:59.606Z,4156.00
2023-04-30T06:36:59.647Z,4076.00
2023-04-30T06:37:59.557Z,4052.00
2023-04-30T06:38:59.558Z,4044.00
2023-04-30T06:39:59.551Z,4040.00
2023-04-30T06:40:59.559Z,4032.00
2023-04-30T06:41:59.522Z,4024.00
2023-04-30T06:42:59.522Z,4012.00
2023-04-30T06:43:59.468Z,4016.00
2023-04-30T06:44:59.475Z,4048.00
2023-04-30T06:45:59.482Z,4052.00
2023-04-30T06:47:02.432Z,4052.00
2023-04-30T06:48:02.493Z,4080.00
2023-04-30T06:48:59.405Z,4080.00
2023-04-30T06:49:59.382Z,4120.00
2023-04-30T06:50:59.368Z,4192.00
2023-04-30T06:51:59.391Z,4192.00
2023-04-30T06:52:59.362Z,4140.00
2023-04-30T06:53:59.342Z,4132.00
2023-04-30T06:54:59.333Z,3484.00
2023-04-30T06:55:59.302Z,3968.00
2023-04-30T06:56:59.315Z,4164.00
2023-04-30T06:57:59.343Z,4048.00
2023-04-30T06:58:59.298Z,3944.00
2023-04-30T06:59:59.261Z,3204.00
2023-04-30T07:00:59.276Z,3248.00
2023-04-30T07:01:59.250Z,3452.00
2023-04-30T07:02:59.354Z,3492.00
2023-04-30T07:03:59.377Z,3432.00
2023-04-30T07:04:59.230Z,3488.00
2023-04-30T07:05:59.233Z,3544.00
2023-04-30T07:07:02.219Z,3672.00
2023-04-30T07:08:02.136Z,3700.00
2023-04-30T07:08:59.150Z,3748.00
2023-04-30T07:09:59.129Z,3844.00
2023-04-30T07:10:59.133Z,3948.00
2023-04-30T07:11:59.102Z,3988.00
2023-04-30T07:12:59.123Z,4140.00
2023-04-30T07:13:59.063Z,4296.00
2023-04-30T07:14:59.060Z,4456.00
2023-04-30T07:15:59.071Z,4480.00
2023-04-30T07:16:59.025Z,4432.00
2023-04-30T07:17:59.085Z,4400.00
2023-04-30T07:18:58.999Z,4372.00
2023-04-30T07:19:58.978Z,4400.00
2023-04-30T07:20:58.961Z,4576.00
2023-04-30T07:21:58.951Z,4564.00
2023-04-30T07:22:58.936Z,4652.00
2023-04-30T07:23:58.990Z,4612.00
2023-04-30T07:24:58.961Z,4680.00
2023-04-30T07:25:58.910Z,4860.00
2023-04-30T07:27:01.897Z,5700.00
2023-04-30T07:28:01.870Z,5704.00
2023-04-30T07:28:58.873Z,5764.00
2023-04-30T07:29:58.836Z,5820.00
2023-04-30T07:30:58.875Z,4948.00
2023-04-30T07:31:58.971Z,5328.00
2023-04-30T07:32:58.846Z,5040.00
2023-04-30T07:33:58.816Z,5392.00
2023-04-30T07:34:58.771Z,4216.00
2023-04-30T07:35:58.816Z,4064.00
2023-04-30T07:36:58.746Z,3888.00
2023-04-30T07:37:58.736Z,4272.00
2023-04-30T07:38:58.713Z,5032.00
2023-04-30T07:39:58.711Z,5016.00
2023-04-30T07:40:58.685Z,4944.00
2023-04-30T07:41:58.706Z,4932.00
2023-04-30T07:42:58.657Z,4852.00
2023-04-30T07:43:58.674Z,4840.00
2023-04-30T07:44:58.632Z,4732.00
2023-04-30T07:45:58.668Z,4808.00
2023-04-30T07:47:01.648Z,4844.00
2023-04-30T07:48:01.727Z,4808.00
2023-04-30T07:48:58.569Z,4776.00
2023-04-30T07:49:58.567Z,4724.00
2023-04-30T07:50:58.562Z,4652.00
2023-04-30T07:51:58.540Z,4600.00
2023-04-30T07:52:58.552Z,4560.00
2023-04-30T07:53:58.517Z,4504.00
2023-04-30T07:54:58.490Z,4508.00
2023-04-30T07:55:58.476Z,4536.00
2023-04-30T07:56:58.498Z,4608.00
2023-04-30T07:57:58.459Z,4692.00
2023-04-30T07:58:58.465Z,4656.00
2023-04-30T07:59:58.665Z,4672.00
2023-04-30T08:00:58.406Z,4684.00
2023-04-30T08:01:58.446Z,3924.00
2023-04-30T08:02:58.432Z,3984.00
2023-04-30T08:03:58.513Z,4604.00
2023-04-30T08:04:58.380Z,4796.00
2023-04-30T08:05:58.390Z,4784.00
2023-04-30T08:07:01.337Z,4580.00
2023-04-30T08:08:01.365Z,4212.00
2023-04-30T08:08:58.364Z,4792.00
2023-04-30T08:09:58.310Z,4820.00
2023-04-30T08:10:58.290Z,4924.00
2023-04-30T08:11:58.287Z,4464.00
2023-04-30T08:12:58.259Z,4460.00
2023-04-30T08:13:58.250Z,4560.00
2023-04-30T08:14:58.286Z,3796.00
2023-04-30T08:15:58.222Z,4548.00
2023-04-30T08:16:58.237Z,4540.00
2023-04-30T08:17:58.223Z,4552.00
2023-04-30T08:18:58.187Z,4548.00
2023-04-30T08:19:58.159Z,4556.00
2023-04-30T08:20:58.211Z,4568.00
2023-04-30T08:21:58.147Z,4620.00
2023-04-30T08:22:58.139Z,4632.00
2023-04-30T08:23:58.111Z,4624.00
2023-04-30T08:24:58.109Z,4588.00
2023-04-30T08:25:58.087Z,4548.00
2023-04-30T08:27:01.118Z,4524.00
2023-04-30T08:28:01.070Z,4240.00
2023-04-30T08:28:58.042Z,4472.00
2023-04-30T08:29:58.038Z,4504.00
2023-04-30T08:30:58.017Z,3968.00
2023-04-30T08:31:58.029Z,3724.00
2023-04-30T08:32:58.071Z,4364.00
2023-04-30T08:33:57.996Z,4420.00
2023-04-30T08:34:57.959Z,4428.00
2023-04-30T08:35:57.957Z,4396.00
2023-04-30T08:36:57.930Z,4448.00
2023-04-30T08:37:57.924Z,4524.00
2023-04-30T08:38:57.961Z,4532.00
2023-04-30T08:39:57.896Z,4520.00
2023-04-30T08:40:57.872Z,4412.00
2023-04-30T08:41:57.903Z,4360.00
2023-04-30T08:42:57.846Z,4300.00
2023-04-30T08:43:57.861Z,4272.00
2023-04-30T08:44:57.844Z,4236.00
2023-04-30T08:45:57.837Z,4240.00
2023-04-30T08:47:00.868Z,4296.00
2023-04-30T08:48:00.821Z,4368.00
2023-04-30T08:48:57.766Z,4440.00
2023-04-30T08:49:57.756Z,4536.00
2023-04-30T08:50:57.756Z,4508.00
2023-04-30T08:51:57.724Z,4420.00
2023-04-30T08:52:57.747Z,4316.00
2023-04-30T08:53:57.689Z,4232.00
2023-04-30T08:54:57.679Z,3848.00
2023-04-30T08:55:57.673Z,4040.00
2023-04-30T08:56:57.693Z,4044.00
2023-04-30T08:57:57.646Z,4084.00
2023-04-30T08:58:57.627Z,4108.00
2023-04-30T08:59:57.713Z,4168.00
2023-04-30T09:00:57.594Z,4212.00
2023-04-30T09:01:57.622Z,4240.00
2023-04-30T09:02:57.675Z,4248.00
2023-04-30T09:03:57.679Z,4224.00
2023-04-30T09:04:57.559Z,4180.00
2023-04-30T09:05:57.628Z,4164.00
2023-04-30T09:07:01.667Z,4184.00
2023-04-30T09:08:04.058Z,4188.00
2023-04-30T09:08:57.478Z,4176.00
2023-04-30T09:09:57.530Z,4128.00
2023-04-30T09:10:57.444Z,4064.00
2023-04-30T09:11:57.490Z,4000.00
2023-04-30T09:12:57.426Z,4040.00
2023-04-30T09:13:57.413Z,4048.00
2023-04-30T09:14:57.386Z,4072.00
2023-04-30T09:15:57.417Z,4140.00
2023-04-30T09:16:57.374Z,4184.00
2023-04-30T09:17:57.461Z,4192.00
2023-04-30T09:18:57.352Z,4196.00
2023-04-30T09:19:57.732Z,4216.00
2023-04-30T09:20:57.345Z,4260.00
2023-04-30T09:21:57.292Z,4224.00
2023-04-30T09:22:57.267Z,4052.00
2023-04-30T09:23:57.341Z,3908.00
2023-04-30T09:24:57.243Z,4380.00
2023-04-30T09:25:57.234Z,4332.00
2023-04-30T09:27:00.235Z,4292.00
2023-04-30T09:28:00.215Z,4296.00
2023-04-30T09:28:57.189Z,4228.00
2023-04-30T09:29:57.325Z,4160.00
2023-04-30T09:30:57.167Z,4116.00
2023-04-30T09:31:57.219Z,4124.00
2023-04-30T09:32:57.224Z,4124.00
2023-04-30T09:33:57.124Z,4140.00
2023-04-30T09:34:57.115Z,4136.00
2023-04-30T09:35:57.150Z,4112.00
2023-04-30T09:36:57.081Z,4112.00
2023-04-30T09:37:57.060Z,4076.00
2023-04-30T09:38:57.063Z,4048.00
2023-04-30T09:39:57.209Z,4020.00
2023-04-30T09:40:57.031Z,3992.00
2023-04-30T09:41:57.046Z,3980.00
2023-04-30T09:42:57.005Z,3980.00
2023-04-30T09:43:57.004Z,3992.00
2023-04-30T09:44:56.989Z,4004.00
2023-04-30T09:45:56.958Z,3996.00
2023-04-30T09:47:00.152Z,3988.00
2023-04-30T09:48:09.033Z,3956.00
2023-04-30T09:48:57.920Z,3916.00
2023-04-30T09:49:57.140Z,3916.00
2023-04-30T09:50:56.885Z,3924.00
2023-04-30T09:51:56.892Z,3900.00
2023-04-30T09:52:56.884Z,3892.00
2023-04-30T09:53:56.861Z,3912.00
2023-04-30T09:54:56.832Z,3916.00
2023-04-30T09:55:58.401Z,3940.00
2023-04-30T09:56:56.810Z,3976.00
2023-04-30T09:57:56.822Z,3984.00
2023-04-30T09:58:56.778Z,3992.00
2023-04-30T09:59:57.030Z,4012.00
2023-04-30T10:00:56.848Z,4028.00
2023-04-30T10:01:56.749Z,4104.00
2023-04-30T10:02:56.764Z,4152.00
2023-04-30T10:03:56.813Z,4160.00
2023-04-30T10:04:56.797Z,4132.00
2023-04-30T10:05:56.716Z,4108.00
2023-04-30T10:06:59.689Z,4124.00
2023-04-30T10:07:59.672Z,4096.00
2023-04-30T10:08:56.636Z,4088.00
2023-04-30T10:09:56.885Z,4048.00
2023-04-30T10:10:56.662Z,4012.00
2023-04-30T10:11:56.605Z,3996.00
2023-04-30T10:12:56.594Z,3992.00
2023-04-30T10:13:56.565Z,3984.00
2023-04-30T10:14:56.577Z,3932.00
2023-04-30T10:15:56.560Z,4036.00
2023-04-30T10:16:56.645Z,4120.00
2023-04-30T10:17:56.632Z,4108.00
2023-04-30T10:18:56.519Z,4128.00
2023-04-30T10:19:56.697Z,4124.00
2023-04-30T10:20:56.514Z,4108.00
2023-04-30T10:21:56.465Z,4076.00
2023-04-30T10:22:56.455Z,4032.00
2023-04-30T10:23:56.474Z,4000.00
2023-04-30T10:24:56.421Z,4012.00
2023-04-30T10:25:56.452Z,4012.00
2023-04-30T10:26:59.387Z,4008.00
2023-04-30T10:27:59.400Z,4028.00
2023-04-30T10:28:56.383Z,4056.00
2023-04-30T10:29:56.794Z,4136.00
2023-04-30T10:30:56.361Z,4256.00
2023-04-30T10:31:56.432Z,4304.00
2023-04-30T10:32:56.376Z,2724.00
2023-04-30T10:33:56.318Z,3920.00
2023-04-30T10:34:56.285Z,4268.00
2023-04-30T10:35:56.305Z,2828.00
2023-04-30T10:36:56.249Z,4168.00
2023-04-30T10:37:56.291Z,4268.00
2023-04-30T10:38:56.225Z,3096.00
2023-04-30T10:39:56.505Z,2884.00
2023-04-30T10:40:56.201Z,2688.00
2023-04-30T10:41:56.186Z,2756.00
2023-04-30T10:42:56.179Z,3544.00
2023-04-30T10:43:56.185Z,3056.00
2023-04-30T10:44:56.155Z,4324.00
2023-04-30T10:45:56.228Z,4248.00
2023-04-30T10:46:59.130Z,4244.00
2023-04-30T10:47:59.120Z,4240.00
2023-04-30T10:48:56.156Z,4220.00
2023-04-30T10:49:56.440Z,4208.00
2023-04-30T10:50:56.060Z,4212.00
2023-04-30T10:51:56.053Z,4200.00
2023-04-30T10:52:56.036Z,4216.00
2023-04-30T10:53:56.022Z,4216.00
2023-04-30T10:54:56.050Z,4224.00
2023-04-30T10:55:56.003Z,4192.00
2023-04-30T10:56:56.020Z,4176.00
2023-04-30T10:57:55.963Z,4172.00
2023-04-30T10:58:55.945Z,4192.00
2023-04-30T10:59:56.220Z,4220.00
2023-04-30T11:00:55.982Z,4208.00
2023-04-30T11:01:56.002Z,4180.00
2023-04-30T11:02:55.927Z,4236.00
2023-04-30T11:03:55.883Z,4288.00
2023-04-30T11:04:55.918Z,4280.00
2023-04-30T11:05:55.915Z,4160.00
2023-04-30T11:06:58.899Z,4072.00
2023-04-30T11:07:58.845Z,4076.00
2023-04-30T11:08:55.810Z,4116.00
2023-04-30T11:09:56.045Z,4156.00
2023-04-30T11:10:55.790Z,4228.00
2023-04-30T11:11:55.773Z,4232.00
2023-04-30T11:13:01.643Z,4176.00
2023-04-30T11:13:55.742Z,4160.00
2023-04-30T11:14:55.771Z,4196.00
2023-04-30T11:15:55.721Z,4208.00
2023-04-30T11:16:55.696Z,4192.00
2023-04-30T11:17:55.729Z,4164.00
2023-04-30T11:18:55.673Z,4152.00
2023-04-30T11:19:55.865Z,4100.00
2023-04-30T11:20:55.657Z,4100.00
2023-04-30T11:21:55.633Z,4100.00
2023-04-30T11:22:55.613Z,4112.00
2023-04-30T11:23:55.635Z,4152.00
2023-04-30T11:24:55.665Z,4160.00
2023-04-30T11:25:55.575Z,4160.00
2023-04-30T11:26:58.562Z,4136.00
2023-04-30T11:27:58.582Z,4132.00
2023-04-30T11:28:55.572Z,4120.00
2023-04-30T11:29:55.925Z,4120.00
2023-04-30T11:30:55.561Z,4160.00
2023-04-30T11:31:55.619Z,4160.00
2023-04-30T11:32:55.517Z,4164.00
2023-04-30T11:33:55.480Z,4132.00
2023-04-30T11:34:55.458Z,4260.00
2023-04-30T11:35:55.468Z,4296.00
2023-04-30T11:36:55.504Z,4356.00
2023-04-30T11:37:55.402Z,4388.00
2023-04-30T11:38:55.388Z,4396.00
2023-04-30T11:39:55.608Z,4432.00
2023-04-30T11:40:55.376Z,4440.00
2023-04-30T11:41:55.353Z,4476.00
2023-04-30T11:42:55.396Z,4496.00
2023-04-30T11:43:55.321Z,4500.00
2023-04-30T11:44:55.312Z,4552.00
2023-04-30T11:45:55.297Z,4584.00
2023-04-30T11:46:58.429Z,4608.00
2023-04-30T11:47:58.301Z,4644.00
2023-04-30T11:48:55.254Z,4636.00
2023-04-30T11:49:55.372Z,4576.00
2023-04-30T11:50:55.249Z,4536.00
2023-04-30T11:51:55.247Z,4556.00
2023-04-30T11:52:55.205Z,4560.00
2023-04-30T11:53:55.209Z,4576.00
2023-04-30T11:54:55.179Z,4552.00
2023-04-30T11:55:55.158Z,4580.00
2023-04-30T11:56:55.221Z,4632.00
2023-04-30T11:57:55.131Z,4720.00
2023-04-30T11:58:55.130Z,4812.00
2023-04-30T11:59:55.428Z,3892.00
2023-04-30T12:00:55.100Z,4996.00
2023-04-30T12:01:55.126Z,4944.00
2023-04-30T12:02:55.426Z,4892.00
2023-04-30T12:03:55.203Z,4792.00
2023-04-30T12:04:55.049Z,4700.00
2023-04-30T12:05:55.048Z,4696.00
2023-04-30T12:06:58.045Z,4712.00
2023-04-30T12:07:58.036Z,4716.00
2023-04-30T12:08:55.023Z,4712.00
2023-04-30T12:09:55.389Z,4656.00
2023-04-30T12:10:54.965Z,4460.00
2023-04-30T12:11:54.958Z,4588.00
2023-04-30T12:12:55.014Z,4640.00
2023-04-30T12:13:54.933Z,4676.00
2023-04-30T12:14:54.912Z,4692.00
2023-04-30T12:15:54.898Z,4724.00
2023-04-30T12:16:54.976Z,4940.00
2023-04-30T12:17:54.926Z,4616.00
2023-04-30T12:18:54.922Z,3040.00
2023-04-30T12:19:55.003Z,3476.00
2023-04-30T12:20:54.851Z,4932.00
2023-04-30T12:21:54.820Z,4940.00
2023-04-30T12:22:54.841Z,4424.00
2023-04-30T12:23:54.797Z,4868.00
2023-04-30T12:24:54.832Z,4880.00